Home   Weather   Morocco   Casablanca   Past weeks
Flag for Morocco

Past Weather in Casablanca, Morocco — Yesterday and Last 2 Weeks

Currently: 57 °F. Fog. (Weather station: Nouasseur, Morocco). See more current weather

Past Weather in Casablanca — Graph

°F

Casablanca Temperature Yesterday

Maximum temperature yesterday: 73 °F (at 11:30 am)
Minimum temperature yesterday: 54 °F (at 11:00 pm)
Average temperature yesterday: 63 °F

High & Low Weather Summary for the Past Weeks

 TemperatureHumidityPressure
High77 °F (Apr 13, 11:30 am)100% (Apr 2, 12:00 am)30.15 "Hg (Apr 2, 12:00 am)
Low43 °F (Apr 9, 7:00 am)36% (Apr 13, 11:30 am)29.86 "Hg (Apr 6, 6:00 pm)
Average60 °F81%30.00 "Hg
* Reported Apr 1 4:00 am — Apr 16 3:00 am, Casablanca. Weather by CustomWeather, © 2021

Note: Actual official high and low records may vary slightly from our data, if they occured in-between our weather recording intervals... More about our weather records

Casablanca Weather History for the Previous 24 Hours

Scroll right to see more
 ConditionsComfort  
Time TempWeatherWind HumidityBarometerVisibility
3:00 am
Fri, Apr 16
55 °FFog.2 mph100%29.92 "Hg1 mi
2:30 am55 °FFog.2 mph100%29.92 "Hg1 mi
2:00 am54 °FFog.3 mph100%29.92 "Hg1 mi
1:30 am52 °FFog.1 mph100%29.92 "Hg1 mi
1:16 am54 °FFog.1 mph100%29.92 "Hg1 mi
1:00 am54 °FPassing clouds.2 mph100%29.92 "HgN/A
12:30 am55 °FPassing clouds.1 mph100%29.92 "HgN/A
12:00 am55 °FPassing clouds.2 mph100%29.95 "HgN/A
11:30 pm
Thu, Apr 15
54 °FPassing clouds.3 mph100%29.95 "HgN/A
11:00 pm54 °FPassing clouds.2 mph100%29.95 "HgN/A
10:30 pm55 °FPassing clouds.2 mph100%29.95 "HgN/A
10:00 pm55 °FPassing clouds.5 mph94%29.95 "HgN/A
9:30 pm55 °FPassing clouds.2 mph100%29.95 "HgN/A
9:00 pm57 °FPassing clouds.3 mph94%29.95 "HgN/A
8:30 pm59 °FPassing clouds.5 mph88%29.92 "HgN/A
8:00 pm59 °FPassing clouds.5 mph88%29.92 "HgN/A
7:30 pm61 °FPassing clouds.5 mph83%29.92 "HgN/A
7:00 pm63 °FPassing clouds.6 mph83%29.89 "HgN/A
6:30 pm64 °FPassing clouds.8 mph78%29.89 "HgN/A
6:00 pm66 °FPassing clouds.9 mph68%29.89 "HgN/A
5:30 pm68 °FPartly sunny.12 mph64%29.89 "HgN/A
5:00 pm68 °FPartly sunny.12 mph69%29.89 "HgN/A
4:30 pm68 °FPartly sunny.14 mph64%29.86 "HgN/A
4:00 pm70 °FPartly sunny.13 mph64%29.89 "HgN/A
3:30 pm70 °FPartly sunny.14 mph60%29.86 "HgN/A
3:00 pm72 °FPartly sunny.14 mph61%29.86 "HgN/A
2:30 pm70 °FPartly sunny.15 mph64%29.89 "HgN/A
2:00 pm72 °FPartly sunny.13 mph57%29.89 "HgN/A
1:30 pm72 °FPartly sunny.9 mph57%29.89 "HgN/A
1:00 pm66 °FPartly sunny.8 mph83%29.89 "HgN/A
12:30 pm66 °FPartly sunny.13 mph68%29.89 "HgN/A
12:00 pm72 °FPartly sunny.7 mph53%29.89 "HgN/A
11:30 am73 °FPartly sunny.5 mph53%29.89 "HgN/A
11:00 am70 °FPartly sunny.7 mph57%29.92 "HgN/A
10:30 am68 °FPartly sunny.7 mph64%29.92 "HgN/A
10:00 am68 °FPartly sunny.6 mph64%29.92 "HgN/A
9:30 am68 °FScattered clouds.5 mph60%29.92 "HgN/A
9:00 am66 °FScattered clouds.5 mph68%29.92 "HgN/A
8:30 am64 °FScattered clouds.5 mph78%29.92 "HgN/A
8:00 am63 °FScattered clouds.6 mph83%29.92 "HgN/A
7:30 am59 °FScattered clouds.5 mph94%29.92 "HgN/A
7:00 am57 °FScattered clouds.5 mph94%29.89 "Hg5 mi
6:30 am57 °FPartly sunny.5 mph94%29.89 "Hg5 mi
6:00 am57 °FPartly sunny.3 mph94%29.89 "Hg5 mi
5:30 am59 °FScattered clouds.3 mph94%29.89 "Hg5 mi
5:00 am59 °FScattered clouds.2 mph94%29.89 "Hg4 mi
4:30 am59 °FFog.3 mph94%29.89 "Hg2 mi
4:00 am57 °FFog.3 mph100%29.89 "Hg0 mi
Weather by CustomWeather, © 2021

See weather overview